Time;durP1;ratioP1;P1;durP2;ratioP2;P2;SDS_P1;SDS_P2;PMS_P1;PMS_P2;Temp;Humidity;BMP_temperature;BMP_pressure;BME280_temperature;BME280_humidity;BME280_pressure;Samples;Min_cycle;Max_cycle;Signal;HPM_P1;HPM_P2
2022/09/22 00:00:42;;;;;;;;;;;3.80;99.90;;;;;;5010673;28;20005;-69
2022/09/22 00:03:09;;;;;;;;;;;3.90;99.90;;;;;;5010918;28;19939;-69
2022/09/22 00:05:35;;;;;;;;;;;3.80;99.90;;;;;;5009214;28;20564;-70
2022/09/22 00:08:02;;;;;;;;;;;3.80;99.90;;;;;;5009853;28;19928;-70
2022/09/22 00:10:29;;;;;;;;;;;3.80;99.90;;;;;;5010287;28;20283;-69
2022/09/22 00:12:56;;;;;;;;;;;3.80;99.90;;;;;;5011762;28;20568;-69
2022/09/22 00:15:23;;;;;;;;;;;3.80;99.90;;;;;;5008841;28;19940;-70
2022/09/22 00:17:49;;;;;;;;;;;3.80;99.90;;;;;;5010659;28;19961;-69
2022/09/22 00:20:16;;;;;;;;;;;3.70;99.90;;;;;;5009970;28;19932;-69
2022/09/22 00:22:43;;;;;;;;;;;3.70;99.90;;;;;;5009521;28;20634;-69
2022/09/22 00:25:10;;;;;;;;;;;3.70;99.90;;;;;;5009571;28;19929;-69
2022/09/22 00:27:37;;;;;;;;;;;3.70;99.90;;;;;;5007807;28;19925;-69
2022/09/22 00:30:04;;;;;;;;;;;3.70;99.90;;;;;;5013380;28;19974;-69
2022/09/22 00:32:30;;;;;;;;;;;3.60;99.90;;;;;;5001958;28;19929;-69
2022/09/22 00:34:57;;;;;;;;;;;3.60;99.90;;;;;;4993491;28;20005;-70
2022/09/22 00:37:24;;;;;;;;;;;3.60;99.90;;;;;;5002468;28;20007;-69
2022/09/22 00:39:52;;;;;;;;;;;3.60;99.90;;;;;;5003083;28;19923;-70
2022/09/22 00:42:19;;;;;;;;;;;3.60;99.90;;;;;;5001009;28;20043;-69
2022/09/22 00:44:46;;;;;;;;;;;3.60;99.90;;;;;;5009932;28;19917;-69
2022/09/22 00:47:30;;;;;;;;;;;3.60;99.90;;;;;;5008989;28;20213;-68
2022/09/22 00:49:57;;;;;;;;;;;3.50;99.90;;;;;;4995908;28;19918;-70
2022/09/22 00:52:31;;;;;;;;;;;3.60;99.90;;;;;;5024086;28;19968;-69
2022/09/22 00:54:59;;;;;;;;;;;3.50;99.90;;;;;;5008499;28;19944;-70
2022/09/22 00:57:28;;;;;;;;;;;3.60;99.90;;;;;;5007605;28;19917;-69
2022/09/22 00:59:55;;;;;;;;;;;3.50;99.90;;;;;;5009887;28;19917;-69
2022/09/22 01:02:22;;;;;;;;;;;3.50;99.90;;;;;;5009322;28;19960;-68
2022/09/22 01:04:50;;;;;;;;;;;3.40;99.90;;;;;;5008614;28;19922;-69
2022/09/22 01:07:21;;;;;;;;;;;3.50;99.90;;;;;;4995984;28;19921;-69
2022/09/22 01:09:48;;;;;;;;;;;3.40;99.90;;;;;;5008825;28;19921;-70
2022/09/22 01:12:15;;;;;;;;;;;3.40;99.90;;;;;;5009013;28;20080;-69
2022/09/22 01:14:45;;;;;;;;;;;3.50;99.90;;;;;;5008690;28;19924;-69
2022/09/22 01:17:19;;;;;;;;;;;3.50;99.90;;;;;;5007842;28;19918;-69
2022/09/22 01:19:58;;;;;;;;;;;3.40;99.90;;;;;;5008969;28;20296;-69
2022/09/22 01:22:46;;;;;;;;;;;3.40;99.90;;;;;;5016415;28;19917;-68
2022/09/22 01:25:16;;;;;;;;;;;3.40;99.90;;;;;;4992575;28;19928;-69
2022/09/22 01:27:54;;;;;;;;;;;3.40;99.90;;;;;;5007972;28;20381;-69
2022/09/22 01:30:32;;;;;;;;;;;3.40;99.90;;;;;;5008819;28;19924;-69
2022/09/22 01:33:01;;;;;;;;;;;3.30;99.90;;;;;;5008818;28;19917;-69
2022/09/22 01:35:31;;;;;;;;;;;3.30;99.90;;;;;;5006398;28;19939;-69
2022/09/22 01:37:58;;;;;;;;;;;3.30;99.90;;;;;;5007540;28;19949;-69
2022/09/22 01:40:29;;;;;;;;;;;3.20;99.90;;;;;;5013452;28;19927;-69
2022/09/22 01:43:10;;;;;;;;;;;3.30;99.90;;;;;;5005541;28;19917;-69
2022/09/22 01:45:39;;;;;;;;;;;3.30;99.90;;;;;;5007714;28;20378;-69
2022/09/22 01:48:16;;;;;;;;;;;3.30;99.90;;;;;;5008648;28;20713;-70
2022/09/22 01:50:50;;;;;;;;;;;3.30;99.90;;;;;;5008285;28;19918;-68
2022/09/22 01:53:18;;;;;;;;;;;3.20;99.90;;;;;;5000204;28;19964;-69
2022/09/22 01:55:50;;;;;;;;;;;3.30;99.90;;;;;;5004611;28;19928;-69
2022/09/22 01:58:19;;;;;;;;;;;3.30;99.90;;;;;;5009105;28;20016;-69
2022/09/22 02:00:58;;;;;;;;;;;3.20;99.90;;;;;;5008740;28;19917;-70
2022/09/22 02:03:28;;;;;;;;;;;3.20;99.90;;;;;;5006714;28;19962;-69
2022/09/22 02:05:58;;;;;;;;;;;3.20;99.90;;;;;;5008711;28;19945;-68
2022/09/22 02:08:31;;;;;;;;;;;3.20;99.90;;;;;;5005647;28;20012;-70
2022/09/22 02:11:02;;;;;;;;;;;3.20;99.90;;;;;;5008429;28;19993;-69
2022/09/22 02:13:29;;;;;;;;;;;3.20;99.90;;;;;;5004023;28;19925;-69
2022/09/22 02:15:59;;;;;;;;;;;3.20;99.90;;;;;;5006701;28;19940;-69
2022/09/22 02:18:32;;;;;;;;;;;3.20;99.90;;;;;;5008888;28;19921;-69
2022/09/22 02:21:00;;;;;;;;;;;3.20;99.90;;;;;;5010227;28;19916;-68
2022/09/22 02:23:27;;;;;;;;;;;3.20;99.90;;;;;;5001912;28;19922;-69
2022/09/22 02:25:54;;;;;;;;;;;3.20;99.90;;;;;;4996642;28;19976;-69
2022/09/22 02:28:22;;;;;;;;;;;3.20;99.90;;;;;;5000199;28;19928;-69
2022/09/22 02:30:51;;;;;;;;;;;3.10;99.90;;;;;;5000189;28;19969;-69
2022/09/22 02:33:39;;;;;;;;;;;3.10;99.90;;;;;;4998725;28;19983;-69
2022/09/22 02:36:09;;;;;;;;;;;3.10;99.90;;;;;;5007038;28;20605;-69
2022/09/22 02:38:46;;;;;;;;;;;3.10;99.90;;;;;;4999810;28;19918;-68
2022/09/22 02:41:17;;;;;;;;;;;3.00;99.90;;;;;;5003255;28;20012;-67
2022/09/22 02:43:47;;;;;;;;;;;3.00;99.90;;;;;;5007188;28;20236;-69
2022/09/22 02:46:21;;;;;;;;;;;3.00;99.90;;;;;;5007806;28;20343;-69
2022/09/22 02:48:53;;;;;;;;;;;3.00;99.90;;;;;;5008140;28;20015;-69
2022/09/22 02:51:20;;;;;;;;;;;3.00;99.90;;;;;;5006295;28;20023;-69
2022/09/22 02:53:47;;;;;;;;;;;3.00;99.90;;;;;;5007230;28;19933;-69
2022/09/22 02:56:14;;;;;;;;;;;3.10;99.90;;;;;;5008092;28;20012;-69
2022/09/22 02:58:41;;;;;;;;;;;3.10;99.90;;;;;;5009124;28;19967;-69
2022/09/22 03:01:08;;;;;;;;;;;3.10;99.90;;;;;;5013342;28;19917;-70
2022/09/22 03:03:35;;;;;;;;;;;3.10;99.90;;;;;;5006128;28;19948;-69
2022/09/22 03:06:01;;;;;;;;;;;3.10;99.90;;;;;;5007617;28;19917;-68
2022/09/22 03:08:28;;;;;;;;;;;3.00;99.90;;;;;;5007609;28;20407;-69
2022/09/22 03:10:55;;;;;;;;;;;3.10;99.90;;;;;;5007267;28;19917;-69
2022/09/22 03:13:22;;;;;;;;;;;3.00;99.90;;;;;;5006030;28;19940;-68
2022/09/22 03:15:49;;;;;;;;;;;3.00;99.90;;;;;;5007450;28;19928;-68
2022/09/22 03:18:16;;;;;;;;;;;3.00;99.90;;;;;;5006437;28;20025;-68
2022/09/22 03:20:44;;;;;;;;;;;3.00;99.90;;;;;;5016291;28;19917;-68
2022/09/22 03:23:11;;;;;;;;;;;3.00;99.90;;;;;;5006917;28;19925;-69
2022/09/22 03:25:37;;;;;;;;;;;3.00;99.90;;;;;;5005754;28;19931;-70
2022/09/22 03:28:04;;;;;;;;;;;3.00;99.90;;;;;;5009884;28;19916;-69
2022/09/22 03:30:31;;;;;;;;;;;3.00;99.90;;;;;;5017456;28;19921;-69
2022/09/22 03:32:58;;;;;;;;;;;3.00;99.90;;;;;;5011071;28;19917;-69
2022/09/22 03:35:25;;;;;;;;;;;3.00;99.90;;;;;;5009558;28;19922;-69
2022/09/22 03:37:52;;;;;;;;;;;3.00;99.90;;;;;;5009709;28;19917;-69
2022/09/22 03:40:18;;;;;;;;;;;2.90;99.90;;;;;;5010233;28;19928;-68
2022/09/22 03:42:45;;;;;;;;;;;2.90;99.90;;;;;;5010721;28;19986;-69
2022/09/22 03:45:13;;;;;;;;;;;2.90;99.90;;;;;;5009258;28;19921;-69
2022/09/22 03:47:40;;;;;;;;;;;2.90;99.90;;;;;;5005828;28;19961;-69
2022/09/22 03:50:07;;;;;;;;;;;2.90;99.90;;;;;;5011181;28;19917;-69
2022/09/22 03:52:34;;;;;;;;;;;2.90;99.90;;;;;;5009492;28;20371;-69
2022/09/22 03:55:01;;;;;;;;;;;2.90;99.90;;;;;;5010842;28;20364;-70
2022/09/22 03:57:29;;;;;;;;;;;2.90;99.90;;;;;;5008072;28;19925;-69
2022/09/22 03:59:56;;;;;;;;;;;2.90;99.90;;;;;;5011276;28;19964;-69
2022/09/22 04:02:22;;;;;;;;;;;2.90;99.90;;;;;;5009508;28;19961;-69
2022/09/22 04:04:49;;;;;;;;;;;2.90;99.90;;;;;;5010426;28;19917;-69
2022/09/22 04:07:16;;;;;;;;;;;2.90;99.90;;;;;;5007800;28;20539;-68
2022/09/22 04:09:43;;;;;;;;;;;2.90;99.90;;;;;;5009642;28;20600;-69
2022/09/22 04:12:09;;;;;;;;;;;2.90;99.90;;;;;;5010064;28;19935;-69
2022/09/22 04:14:36;;;;;;;;;;;2.90;99.90;;;;;;5009399;28;19921;-69
2022/09/22 04:17:04;;;;;;;;;;;2.90;99.90;;;;;;5010401;28;20004;-69
2022/09/22 04:19:34;;;;;;;;;;;2.90;99.90;;;;;;5006138;28;20458;-69
2022/09/22 04:22:02;;;;;;;;;;;2.90;99.90;;;;;;5002160;28;20024;-69
2022/09/22 04:24:28;;;;;;;;;;;2.90;99.90;;;;;;5006377;28;20295;-69
2022/09/22 04:26:55;;;;;;;;;;;3.00;99.90;;;;;;5005452;28;19918;-69
2022/09/22 04:29:42;;;;;;;;;;;3.00;99.90;;;;;;5008889;28;19917;-69
2022/09/22 04:32:09;;;;;;;;;;;3.00;99.90;;;;;;5002467;28;19918;-69
2022/09/22 04:34:36;;;;;;;;;;;3.00;99.90;;;;;;5009284;28;19917;-69
2022/09/22 04:37:02;;;;;;;;;;;3.10;99.90;;;;;;5005731;28;19918;-69
2022/09/22 04:39:29;;;;;;;;;;;3.10;99.90;;;;;;4994208;28;19924;-69
2022/09/22 04:41:56;;;;;;;;;;;3.10;99.90;;;;;;4997830;28;19959;-69
2022/09/22 04:44:23;;;;;;;;;;;3.10;99.90;;;;;;5005132;28;20255;-69
2022/09/22 04:46:50;;;;;;;;;;;3.20;99.90;;;;;;5009009;28;20377;-69
2022/09/22 04:49:17;;;;;;;;;;;3.20;99.90;;;;;;5006781;28;19964;-69
2022/09/22 04:51:44;;;;;;;;;;;3.20;99.90;;;;;;5008975;28;20377;-69
2022/09/22 04:54:12;;;;;;;;;;;3.20;99.90;;;;;;5008600;28;19923;-70
2022/09/22 04:56:40;;;;;;;;;;;3.30;99.90;;;;;;5008609;28;20216;-69
2022/09/22 04:59:07;;;;;;;;;;;3.30;99.90;;;;;;5008878;28;20101;-69
2022/09/22 05:01:34;;;;;;;;;;;3.30;99.90;;;;;;5007375;28;20019;-69
2022/09/22 05:04:01;;;;;;;;;;;3.40;99.90;;;;;;5007959;28;19945;-69
2022/09/22 05:06:28;;;;;;;;;;;3.40;99.90;;;;;;5008564;28;19949;-69
2022/09/22 05:08:55;;;;;;;;;;;3.50;99.90;;;;;;5008145;28;19967;-69
2022/09/22 05:11:22;;;;;;;;;;;3.50;99.90;;;;;;5005586;28;19924;-69
2022/09/22 05:13:49;;;;;;;;;;;3.60;99.90;;;;;;5008990;28;19996;-69
2022/09/22 05:16:16;;;;;;;;;;;3.60;99.90;;;;;;5008437;28;20276;-69
2022/09/22 05:18:43;;;;;;;;;;;3.70;99.90;;;;;;5008392;28;20044;-69
2022/09/22 05:21:10;;;;;;;;;;;3.80;99.90;;;;;;5008154;28;19917;-69
2022/09/22 05:23:38;;;;;;;;;;;3.80;99.90;;;;;;5006757;28;20015;-69
2022/09/22 05:26:05;;;;;;;;;;;3.90;99.90;;;;;;5007862;28;19929;-69
2022/09/22 05:28:32;;;;;;;;;;;3.90;99.90;;;;;;5002216;28;19925;-69
2022/09/22 05:30:59;;;;;;;;;;;3.90;99.90;;;;;;5008475;28;19917;-69
2022/09/22 05:33:26;;;;;;;;;;;4.00;99.90;;;;;;5005925;28;19918;-69
2022/09/22 05:35:53;;;;;;;;;;;4.00;99.90;;;;;;5008108;28;20286;-69
2022/09/22 05:38:19;;;;;;;;;;;4.00;99.90;;;;;;5007770;28;20012;-69
2022/09/22 05:40:46;;;;;;;;;;;4.10;99.90;;;;;;5008039;28;19948;-69
2022/09/22 05:43:13;;;;;;;;;;;4.20;99.90;;;;;;5008149;28;19918;-69
2022/09/22 05:45:41;;;;;;;;;;;4.20;99.90;;;;;;5006903;28;19921;-69
2022/09/22 05:48:08;;;;;;;;;;;4.30;99.90;;;;;;4995358;28;19917;-68
2022/09/22 05:50:35;;;;;;;;;;;4.40;99.90;;;;;;5008957;28;20383;-69
2022/09/22 05:53:06;;;;;;;;;;;4.50;99.90;;;;;;5010171;28;19921;-69
2022/09/22 05:55:33;;;;;;;;;;;4.50;99.90;;;;;;5005568;28;20020;-69
2022/09/22 05:58:01;;;;;;;;;;;4.60;99.90;;;;;;5006638;28;20022;-69
2022/09/22 06:00:28;;;;;;;;;;;4.70;99.90;;;;;;5007773;28;19960;-69
2022/09/22 06:02:55;;;;;;;;;;;4.80;99.90;;;;;;5007777;28;19924;-69
2022/09/22 06:05:22;;;;;;;;;;;4.90;99.90;;;;;;5003451;28;20613;-69
2022/09/22 06:08:01;;;;;;;;;;;5.00;99.90;;;;;;5007243;28;19943;-69
2022/09/22 06:10:29;;;;;;;;;;;5.20;99.90;;;;;;5007622;28;19940;-70
2022/09/22 06:12:59;;;;;;;;;;;5.30;99.90;;;;;;5007912;28;19921;-69
2022/09/22 06:15:27;;;;;;;;;;;5.40;99.90;;;;;;4990843;28;19948;-69
2022/09/22 06:17:55;;;;;;;;;;;5.50;99.90;;;;;;5002572;28;19952;-69
2022/09/22 06:20:22;;;;;;;;;;;5.70;99.90;;;;;;5007738;28;19921;-69
2022/09/22 06:22:49;;;;;;;;;;;5.80;99.90;;;;;;5005878;28;19933;-69
2022/09/22 06:25:16;;;;;;;;;;;5.90;99.90;;;;;;5006079;28;20250;-69
2022/09/22 06:27:42;;;;;;;;;;;6.00;99.90;;;;;;5007998;28;19948;-69
2022/09/22 06:30:10;;;;;;;;;;;6.20;99.90;;;;;;5007257;28;20008;-69
2022/09/22 06:32:42;;;;;;;;;;;6.30;99.90;;;;;;5007684;28;20335;-69
2022/09/22 06:35:10;;;;;;;;;;;6.40;99.90;;;;;;5007769;28;19922;-70
2022/09/22 06:37:39;;;;;;;;;;;6.50;99.90;;;;;;5004570;28;19994;-69
2022/09/22 06:40:07;;;;;;;;;;;6.70;99.90;;;;;;5000771;28;20248;-69
2022/09/22 06:42:34;;;;;;;;;;;6.80;99.90;;;;;;5002795;28;20016;-69
2022/09/22 06:45:03;;;;;;;;;;;6.90;99.90;;;;;;5007323;28;19917;-69
2022/09/22 06:47:31;;;;;;;;;;;7.10;99.90;;;;;;5006492;28;19917;-69
2022/09/22 06:49:58;;;;;;;;;;;7.10;99.90;;;;;;5007757;28;20100;-69
2022/09/22 06:52:26;;;;;;;;;;;7.30;99.90;;;;;;5002295;28;19945;-69
2022/09/22 06:54:55;;;;;;;;;;;7.30;99.90;;;;;;5004511;28;20378;-70
2022/09/22 06:57:21;;;;;;;;;;;7.40;99.90;;;;;;5002086;28;19925;-69
2022/09/22 06:59:48;;;;;;;;;;;7.60;99.90;;;;;;5003917;28;20028;-69
2022/09/22 07:02:15;;;;;;;;;;;7.70;99.90;;;;;;5004329;28;20370;-69
2022/09/22 07:04:42;;;;;;;;;;;7.80;99.90;;;;;;5007755;28;19935;-69
2022/09/22 07:07:09;;;;;;;;;;;7.90;99.90;;;;;;5022723;28;20015;-70
2022/09/22 07:09:35;;;;;;;;;;;8.10;99.90;;;;;;5007878;28;19928;-69
2022/09/22 07:12:02;;;;;;;;;;;8.20;99.90;;;;;;5005975;28;20283;-69
2022/09/22 07:14:30;;;;;;;;;;;8.30;99.90;;;;;;5008288;28;19918;-69
2022/09/22 07:16:56;;;;;;;;;;;8.50;99.90;;;;;;5006906;28;19917;-70
2022/09/22 07:19:23;;;;;;;;;;;8.70;99.90;;;;;;5010357;28;20235;-69
2022/09/22 07:21:50;;;;;;;;;;;8.80;99.90;;;;;;5008055;28;20008;-70
2022/09/22 07:24:17;;;;;;;;;;;8.90;99.90;;;;;;5009274;28;20009;-70
2022/09/22 07:26:44;;;;;;;;;;;9.00;99.90;;;;;;5010475;28;20004;-70
2022/09/22 07:29:12;;;;;;;;;;;9.20;99.90;;;;;;4999811;28;20033;-69
2022/09/22 07:31:40;;;;;;;;;;;9.20;99.90;;;;;;5008081;28;19918;-70
2022/09/22 07:34:08;;;;;;;;;;;9.40;99.90;;;;;;5010011;28;20068;-69
2022/09/22 07:36:35;;;;;;;;;;;9.50;99.90;;;;;;5010055;28;19921;-70
2022/09/22 07:39:06;;;;;;;;;;;9.60;99.90;;;;;;5009962;28;19921;-69
2022/09/22 07:41:41;;;;;;;;;;;9.60;99.90;;;;;;5007262;28;19917;-69
2022/09/22 07:46:55;;;;;;;;;;;9.90;99.90;;;;;;5009943;28;19921;-69
2022/09/22 07:49:22;;;;;;;;;;;10.10;99.90;;;;;;5008488;28;19925;-70
2022/09/22 07:51:48;;;;;;;;;;;10.20;99.90;;;;;;5004695;28;19928;-70
2022/09/22 07:54:15;;;;;;;;;;;10.40;99.90;;;;;;5008848;28;20004;-70
2022/09/22 07:56:42;;;;;;;;;;;10.50;99.90;;;;;;5010257;28;19952;-72
2022/09/22 07:59:10;;;;;;;;;;;10.70;99.90;;;;;;5014630;28;19921;-71
2022/09/22 08:01:40;;;;;;;;;;;10.70;99.90;;;;;;5008451;28;19917;-70
2022/09/22 08:04:10;;;;;;;;;;;10.90;99.90;;;;;;5010070;28;20359;-70
2022/09/22 08:06:37;;;;;;;;;;;11.10;99.90;;;;;;5009760;28;19917;-70
2022/09/22 08:09:05;;;;;;;;;;;11.20;99.90;;;;;;5005208;28;20304;-70
2022/09/22 08:11:32;;;;;;;;;;;11.30;99.90;;;;;;5007559;28;19928;-70
2022/09/22 08:14:00;;;;;;;;;;;11.30;99.90;;;;;;5009543;28;20413;-70
2022/09/22 08:16:30;;;;;;;;;;;11.40;99.90;;;;;;5008907;28;20211;-70
2022/09/22 08:18:59;;;;;;;;;;;11.50;99.90;;;;;;5010201;28;19917;-70
2022/09/22 08:21:26;;;;;;;;;;;11.60;99.90;;;;;;5007383;28;20266;-70
2022/09/22 08:23:53;;;;;;;;;;;11.70;99.90;;;;;;5009338;28;19924;-70
2022/09/22 08:26:20;;;;;;;;;;;11.70;99.90;;;;;;5009110;28;19917;-70
2022/09/22 08:28:51;;;;;;;;;;;11.80;99.90;;;;;;5009198;28;20000;-69
2022/09/22 08:31:19;;;;;;;;;;;11.80;99.90;;;;;;5006847;28;20044;-69
2022/09/22 08:33:48;;;;;;;;;;;11.80;99.90;;;;;;5008564;28;19949;-70
2022/09/22 08:36:15;;;;;;;;;;;11.90;99.90;;;;;;5007971;28;19937;-69
2022/09/22 08:38:44;;;;;;;;;;;11.90;99.90;;;;;;5013561;28;19922;-70
2022/09/22 08:41:14;;;;;;;;;;;11.90;99.90;;;;;;4995505;28;20239;-70
2022/09/22 08:43:54;;;;;;;;;;;12.00;99.90;;;;;;5006791;28;20000;-70
2022/09/22 08:46:23;;;;;;;;;;;12.10;99.90;;;;;;5007768;28;19924;-70
2022/09/22 08:51:50;;;;;;;;;;;12.10;99.90;;;;;;5008033;28;19926;-70
2022/09/22 08:54:28;;;;;;;;;;;12.30;99.90;;;;;;5009672;28;19930;-70
2022/09/22 08:57:21;;;;;;;;;;;12.30;99.90;;;;;;5018314;28;20247;-70
2022/09/22 08:59:50;;;;;;;;;;;12.30;99.90;;;;;;4997203;28;19956;-70
2022/09/22 09:02:17;;;;;;;;;;;12.40;99.90;;;;;;5008230;28;19924;-70
2022/09/22 09:04:50;;;;;;;;;;;12.40;99.90;;;;;;5007973;28;20004;-70
2022/09/22 09:07:25;;;;;;;;;;;12.40;99.90;;;;;;5007758;28;19917;-69
2022/09/22 09:09:58;;;;;;;;;;;12.50;99.90;;;;;;5003918;28;19921;-70
2022/09/22 09:12:25;;;;;;;;;;;12.50;99.90;;;;;;5008748;28;20004;-69
2022/09/22 09:14:54;;;;;;;;;;;12.60;99.90;;;;;;5010773;28;19917;-70
2022/09/22 09:17:29;;;;;;;;;;;12.60;99.90;;;;;;5008311;28;19996;-70
2022/09/22 09:19:56;;;;;;;;;;;12.70;99.90;;;;;;5009857;28;20571;-70
2022/09/22 09:22:30;;;;;;;;;;;12.80;99.90;;;;;;5007673;28;19932;-69
2022/09/22 09:25:07;;;;;;;;;;;12.70;99.90;;;;;;5007482;28;20012;-70
2022/09/22 09:27:53;;;;;;;;;;;12.80;99.90;;;;;;5006878;28;20419;-70
2022/09/22 09:30:20;;;;;;;;;;;12.90;99.90;;;;;;5007735;28;19922;-69
2022/09/22 09:32:59;;;;;;;;;;;12.90;99.90;;;;;;5008012;28;19943;-70
2022/09/22 09:35:41;;;;;;;;;;;13.00;99.90;;;;;;5004184;28;19971;-70
2022/09/22 09:38:13;;;;;;;;;;;13.00;99.90;;;;;;5005300;28;20001;-70
2022/09/22 09:40:40;;;;;;;;;;;13.00;99.90;;;;;;5004322;28;19924;-70
2022/09/22 09:43:07;;;;;;;;;;;13.10;99.90;;;;;;5008381;28;19917;-70
2022/09/22 09:45:34;;;;;;;;;;;13.10;99.90;;;;;;5006555;28;19983;-69
2022/09/22 09:48:10;;;;;;;;;;;13.20;99.90;;;;;;5008187;28;19918;-70
2022/09/22 09:50:38;;;;;;;;;;;13.20;99.90;;;;;;5008752;28;19937;-70
2022/09/22 09:53:05;;;;;;;;;;;13.30;99.90;;;;;;5007677;28;19921;-70
2022/09/22 09:55:34;;;;;;;;;;;13.30;99.90;;;;;;5006283;28;19975;-70
2022/09/22 09:58:05;;;;;;;;;;;13.30;99.90;;;;;;5008677;28;19928;-70
2022/09/22 10:00:33;;;;;;;;;;;13.30;99.90;;;;;;5007697;28;19918;-70
2022/09/22 10:03:05;;;;;;;;;;;13.30;99.90;;;;;;5008335;28;19917;-70
2022/09/22 10:05:36;;;;;;;;;;;13.40;99.90;;;;;;4997478;28;19948;-70
2022/09/22 10:08:14;;;;;;;;;;;13.40;99.90;;;;;;5006632;28;19926;-70
2022/09/22 10:10:40;;;;;;;;;;;13.40;99.90;;;;;;5002233;28;19917;-70
2022/09/22 10:13:07;;;;;;;;;;;13.40;99.90;;;;;;5007783;28;19925;-70
2022/09/22 10:15:35;;;;;;;;;;;13.40;99.90;;;;;;5006365;28;19929;-70
2022/09/22 10:18:08;;;;;;;;;;;13.40;99.90;;;;;;5008192;28;20295;-70
2022/09/22 10:20:35;;;;;;;;;;;13.40;99.90;;;;;;5008012;28;20361;-70
2022/09/22 10:23:21;;;;;;;;;;;13.50;99.90;;;;;;5007459;28;19917;-70
2022/09/22 10:25:49;;;;;;;;;;;13.50;99.90;;;;;;5005736;28;19918;-69
2022/09/22 10:28:18;;;;;;;;;;;13.60;99.90;;;;;;4999856;28;19917;-70
2022/09/22 10:31:03;;;;;;;;;;;13.60;99.90;;;;;;5006763;28;19924;-70
2022/09/22 10:33:31;;;;;;;;;;;13.70;99.90;;;;;;5005575;28;19968;-70
2022/09/22 10:36:08;;;;;;;;;;;13.70;99.90;;;;;;5006559;28;19977;-69
2022/09/22 10:38:39;;;;;;;;;;;13.80;99.90;;;;;;5005835;28;20339;-70
2022/09/22 10:41:09;;;;;;;;;;;13.70;99.90;;;;;;5008924;28;19922;-70
2022/09/22 10:43:44;;;;;;;;;;;13.70;99.90;;;;;;5008105;28;20233;-70
2022/09/22 10:46:27;;;;;;;;;;;13.80;99.90;;;;;;5010378;28;20023;-70
2022/09/22 10:48:54;;;;;;;;;;;13.80;99.90;;;;;;5007994;28;20000;-71
2022/09/22 10:51:40;;;;;;;;;;;13.90;99.90;;;;;;5006513;28;20652;-70
2022/09/22 10:54:06;;;;;;;;;;;13.90;99.90;;;;;;5004723;28;20367;-70
2022/09/22 10:56:48;;;;;;;;;;;14.00;99.90;;;;;;5000242;28;19921;-70
2022/09/22 10:59:15;;;;;;;;;;;14.00;99.90;;;;;;5006268;28;20339;-70
2022/09/22 11:01:46;;;;;;;;;;;14.00;99.90;;;;;;5009300;28;19948;-71
2022/09/22 11:04:32;;;;;;;;;;;14.00;99.90;;;;;;5009889;28;19921;-71
2022/09/22 11:12:54;;;;;;;;;;;14.20;99.90;;;;;;5001035;28;19918;-71
2022/09/22 11:15:21;;;;;;;;;;;14.20;99.90;;;;;;5008062;28;19917;-70
2022/09/22 11:18:08;;;;;;;;;;;14.10;99.90;;;;;;5010038;28;19917;-70
2022/09/22 11:20:36;;;;;;;;;;;14.10;99.90;;;;;;4979118;28;19934;-70
2022/09/22 11:23:22;;;;;;;;;;;14.20;99.90;;;;;;5008570;28;19925;-70
2022/09/22 11:25:56;;;;;;;;;;;14.20;99.90;;;;;;5007607;28;20367;-71
2022/09/22 11:28:38;;;;;;;;;;;14.10;99.90;;;;;;5009155;28;20031;-70
2022/09/22 11:31:05;;;;;;;;;;;14.20;99.90;;;;;;4970654;28;1136087;-71
2022/09/22 11:33:57;;;;;;;;;;;14.20;99.90;;;;;;5008623;28;19959;-70
2022/09/22 11:36:24;;;;;;;;;;;14.20;99.90;;;;;;5009815;28;20232;-70
2022/09/22 11:39:06;;;;;;;;;;;14.20;99.90;;;;;;5010323;28;19923;-71
2022/09/22 11:41:36;;;;;;;;;;;14.30;99.90;;;;;;4995962;28;19926;-70
2022/09/22 11:44:06;;;;;;;;;;;14.30;99.90;;;;;;5010676;28;20263;-71
2022/09/22 11:46:53;;;;;;;;;;;14.30;99.90;;;;;;5012344;28;20290;-69
2022/09/22 11:49:38;;;;;;;;;;;14.30;99.90;;;;;;5008240;28;19940;-71
2022/09/22 11:52:05;;;;;;;;;;;14.40;99.90;;;;;;5010239;28;19968;-71
2022/09/22 11:54:59;;;;;;;;;;;14.40;99.90;;;;;;5009740;28;19926;-70
2022/09/22 11:57:28;;;;;;;;;;;14.50;99.90;;;;;;5007438;28;19917;-71
2022/09/22 11:59:58;;;;;;;;;;;14.50;99.90;;;;;;5010962;28;20351;-71
2022/09/22 12:02:36;;;;;;;;;;;14.40;99.90;;;;;;5010988;28;19971;-71
2022/09/22 12:05:12;;;;;;;;;;;14.40;99.90;;;;;;5009872;28;19983;-70
2022/09/22 12:07:44;;;;;;;;;;;14.40;99.90;;;;;;5002707;28;19956;-70
2022/09/22 12:10:17;;;;;;;;;;;14.50;99.90;;;;;;5008058;28;19928;-70
2022/09/22 12:12:47;;;;;;;;;;;14.60;99.90;;;;;;5010046;28;19926;-70
2022/09/22 12:15:33;;;;;;;;;;;14.50;99.90;;;;;;5007922;28;19983;-68
2022/09/22 12:18:08;;;;;;;;;;;14.50;99.90;;;;;;5009325;28;19921;-70
2022/09/22 12:20:55;;;;;;;;;;;14.50;99.90;;;;;;5009805;28;20008;-71
2022/09/22 12:23:22;;;;;;;;;;;14.50;99.90;;;;;;4996226;28;20618;-70
2022/09/22 12:25:51;;;;;;;;;;;14.50;99.90;;;;;;5024602;28;19993;-70
2022/09/22 12:28:25;;;;;;;;;;;14.60;99.90;;;;;;5009833;28;20327;-70
2022/09/22 12:30:55;;;;;;;;;;;14.60;99.90;;;;;;5007270;28;20005;-70
2022/09/22 12:33:22;;;;;;;;;;;14.60;99.90;;;;;;5009456;28;19921;-70
2022/09/22 12:35:53;;;;;;;;;;;14.60;99.90;;;;;;5007773;28;20016;-70
2022/09/22 12:38:21;;;;;;;;;;;14.50;99.90;;;;;;5003027;28;20584;-70
2022/09/22 12:40:50;;;;;;;;;;;14.50;99.90;;;;;;5004963;28;19924;-70
2022/09/22 12:43:19;;;;;;;;;;;14.60;99.90;;;;;;4999793;28;20263;-70
2022/09/22 12:45:47;;;;;;;;;;;14.50;99.90;;;;;;5009128;28;20007;-70
2022/09/22 12:48:16;;;;;;;;;;;14.50;99.90;;;;;;5009891;28;19921;-71
2022/09/22 12:50:44;;;;;;;;;;;14.50;99.90;;;;;;5009336;28;19932;-71
2022/09/22 12:53:23;;;;;;;;;;;14.40;99.90;;;;;;5008392;28;19921;-70
2022/09/22 12:55:50;;;;;;;;;;;14.40;99.90;;;;;;5007303;28;19918;-70
2022/09/22 12:58:17;;;;;;;;;;;14.50;99.90;;;;;;5009016;28;19923;-70
2022/09/22 13:00:44;;;;;;;;;;;14.50;99.90;;;;;;5008280;28;20015;-71
2022/09/22 13:03:24;;;;;;;;;;;14.60;99.90;;;;;;5008929;28;19945;-71
2022/09/22 13:05:51;;;;;;;;;;;14.70;99.90;;;;;;5007855;28;19999;-71
2022/09/22 13:08:21;;;;;;;;;;;14.60;99.90;;;;;;5008613;28;19928;-70
2022/09/22 13:10:55;;;;;;;;;;;14.60;99.90;;;;;;5008582;28;19927;-70
2022/09/22 13:13:22;;;;;;;;;;;14.70;99.90;;;;;;5007429;28;20020;-70
2022/09/22 13:15:53;;;;;;;;;;;14.70;99.90;;;;;;5008112;28;20004;-70
2022/09/22 13:18:36;;;;;;;;;;;14.80;99.90;;;;;;5008440;28;19999;-70
2022/09/22 13:21:12;;;;;;;;;;;14.80;99.90;;;;;;5008093;28;19967;-71
2022/09/22 13:23:56;;;;;;;;;;;14.90;99.90;;;;;;5006507;28;19956;-70
2022/09/22 13:26:25;;;;;;;;;;;14.90;99.90;;;;;;5022159;28;19955;-70
2022/09/22 13:29:04;;;;;;;;;;;14.80;99.90;;;;;;5008834;28;19923;-71
2022/09/22 13:31:35;;;;;;;;;;;14.90;99.90;;;;;;5001356;28;20020;-70
2022/09/22 13:34:20;;;;;;;;;;;14.90;99.90;;;;;;5008984;28;19944;-71
2022/09/22 13:36:48;;;;;;;;;;;14.80;99.90;;;;;;5008571;28;19924;-71
2022/09/22 13:39:17;;;;;;;;;;;14.80;99.90;;;;;;5005429;28;19917;-71
2022/09/22 13:42:07;;;;;;;;;;;15.00;99.90;;;;;;5008995;28;19944;-71
2022/09/22 13:44:36;;;;;;;;;;;15.10;99.90;;;;;;5008191;28;20329;-71
2022/09/22 13:47:05;;;;;;;;;;;15.10;99.90;;;;;;5008620;28;19921;-71
2022/09/22 13:49:41;;;;;;;;;;;15.10;99.90;;;;;;5005893;28;19925;-70
2022/09/22 13:52:11;;;;;;;;;;;15.20;99.90;;;;;;5007929;28;20044;-70
2022/09/22 13:54:38;;;;;;;;;;;15.20;99.90;;;;;;5007321;28;20266;-71
2022/09/22 13:57:14;;;;;;;;;;;15.20;99.90;;;;;;5003501;28;20339;-70
2022/09/22 13:59:42;;;;;;;;;;;15.30;99.90;;;;;;5006796;28;19925;-72
2022/09/22 14:02:10;;;;;;;;;;;15.40;99.90;;;;;;5007719;28;19917;-72
2022/09/22 14:04:46;;;;;;;;;;;15.50;99.90;;;;;;5008571;28;19922;-71
2022/09/22 14:07:13;;;;;;;;;;;15.50;99.90;;;;;;5007994;28;19993;-70
2022/09/22 14:09:40;;;;;;;;;;;15.50;99.90;;;;;;5005716;28;20321;-71
2022/09/22 14:12:08;;;;;;;;;;;15.50;99.90;;;;;;5008310;28;19917;-71
2022/09/22 14:14:35;;;;;;;;;;;15.50;99.90;;;;;;5008527;28;19918;-70
2022/09/22 14:17:14;;;;;;;;;;;15.60;99.90;;;;;;5008003;28;19944;-71
2022/09/22 14:19:54;;;;;;;;;;;15.70;99.90;;;;;;5006355;28;19929;-71
2022/09/22 14:22:22;;;;;;;;;;;15.70;99.90;;;;;;5007369;28;19917;-70
2022/09/22 14:24:51;;;;;;;;;;;15.90;99.90;;;;;;5007021;28;19953;-73
2022/09/22 14:27:30;;;;;;;;;;;16.00;99.90;;;;;;5006227;28;19917;-71
2022/09/22 14:29:56;;;;;;;;;;;16.20;99.90;;;;;;4996277;28;19945;-70
2022/09/22 14:32:34;;;;;;;;;;;16.20;99.90;;;;;;5007766;28;20233;-72
2022/09/22 14:35:04;;;;;;;;;;;16.40;99.90;;;;;;5011529;28;19928;-72
2022/09/22 14:37:41;;;;;;;;;;;16.60;99.90;;;;;;5003314;28;19936;-75
2022/09/22 14:40:16;;;;;;;;;;;16.50;99.90;;;;;;5000817;28;20025;-72
2022/09/22 14:42:54;;;;;;;;;;;16.60;99.90;;;;;;5004173;28;19918;-72
2022/09/22 14:45:21;;;;;;;;;;;16.70;99.90;;;;;;5002627;28;19939;-70
2022/09/22 14:48:07;;;;;;;;;;;16.60;99.90;;;;;;5006437;28;20023;-72
2022/09/22 14:50:36;;;;;;;;;;;16.80;99.90;;;;;;5002701;28;19936;-72
2022/09/22 14:53:06;;;;;;;;;;;16.60;99.90;;;;;;5005717;28;20035;-71